createdAt,value
2019-03-26T00:01:28.565Z,94718.9
2019-03-26T00:06:26.095Z,94721.9
2019-03-26T00:11:23.764Z,94733.8
2019-03-26T00:16:21.553Z,94739.6
2019-03-26T00:21:19.182Z,94746.6
2019-03-26T00:26:17.273Z,94684.7
2019-03-26T00:31:14.857Z,94765.5
2019-03-26T00:36:12.772Z,94669.6
2019-03-26T00:41:10.019Z,94782.2
2019-03-26T00:46:07.663Z,94786.2
2019-03-26T00:51:05.149Z,94794.6
2019-03-26T00:56:02.874Z,94802
2019-03-26T01:01:00.479Z,94797.9
2019-03-26T01:05:56.933Z,94802.1
2019-03-26T01:10:54.520Z,94815.1
2019-03-26T01:15:52.711Z,94742.9
2019-03-26T01:20:50.338Z,94794.5
2019-03-26T01:25:48.015Z,94822.1
2019-03-26T01:30:45.651Z,94822
2019-03-26T01:35:43.485Z,94817.6
2019-03-26T01:40:41.244Z,94821.3
2019-03-26T01:45:38.928Z,94827.6
2019-03-26T01:50:36.830Z,94840.8
2019-03-26T01:55:34.572Z,94765.6
2019-03-26T02:00:32.194Z,94789.2
2019-03-26T02:05:30.483Z,94858.7
2019-03-26T02:10:28.032Z,94802.3
2019-03-26T02:15:25.625Z,94779.7
2019-03-26T02:20:23.814Z,94867.5
2019-03-26T02:25:21.694Z,94876.4
2019-03-26T02:30:19.332Z,94795.2
2019-03-26T02:35:18.936Z,94808.4
2019-03-26T02:40:14.423Z,94816.5
2019-03-26T02:45:12.140Z,94812.6
2019-03-26T02:50:10.009Z,94824.7
2019-03-26T02:55:07.983Z,94907.3
2019-03-26T03:00:05.335Z,94839.4
2019-03-26T03:05:03.188Z,94940.5
2019-03-26T03:10:00.920Z,94860.5
2019-03-26T03:14:58.997Z,94957.5
2019-03-26T03:19:56.222Z,94890.4
2019-03-26T03:24:53.831Z,94903.9
2019-03-26T03:29:51.010Z,94912.3
2019-03-26T03:34:48.548Z,94917
2019-03-26T03:39:46.218Z,94929.8
2019-03-26T03:44:43.913Z,94931.2
2019-03-26T03:49:41.423Z,94911.7
2019-03-26T03:54:38.950Z,94948.8
2019-03-26T03:59:36.497Z,94960.8
2019-03-26T04:04:34.223Z,94975.8
2019-03-26T04:09:32.023Z,94979.1
2019-03-26T04:14:29.573Z,94988.1
2019-03-26T04:19:27.245Z,95001
2019-03-26T04:24:24.955Z,95012.3
2019-03-26T04:29:22.503Z,95017.7
2019-03-26T04:34:22.565Z,95030
2019-03-26T04:39:17.969Z,95035
2019-03-26T04:44:15.583Z,95041.7
2019-03-26T04:49:13.342Z,95036.7
2019-03-26T04:54:11.481Z,95133.4
2019-03-26T04:59:09.579Z,95144.8
2019-03-26T05:04:07.294Z,95065.1
2019-03-26T05:09:05.437Z,95044.3
2019-03-26T05:14:03.092Z,95078.2
2019-03-26T05:19:00.797Z,95085.7
2019-03-26T05:23:58.303Z,95094.6
2019-03-26T05:28:56.165Z,95163
2019-03-26T05:33:53.561Z,95091.1
2019-03-26T05:38:51.221Z,95089.3
2019-03-26T05:43:48.790Z,95070.1
2019-03-26T05:48:46.610Z,95086.5
2019-03-26T05:53:44.204Z,95047.4
2019-03-26T05:58:42.019Z,95095.1
2019-03-26T06:03:40.255Z,95025.8
2019-03-26T06:08:37.514Z,95098.3
2019-03-26T06:13:35.201Z,95015.6
2019-03-26T06:18:33.019Z,95119.1
2019-03-26T06:23:30.361Z,95124.6
2019-03-26T06:28:27.868Z,95119.6
2019-03-26T06:33:25.351Z,95125.4
2019-03-26T06:38:22.966Z,95124.5
2019-03-26T06:43:20.601Z,95131.9
2019-03-26T06:48:18.204Z,95146.6
2019-03-26T06:53:16.299Z,95130.5
2019-03-26T06:58:13.601Z,95127.7
2019-03-26T07:03:11.455Z,95116.9
2019-03-26T07:08:08.895Z,95134
2019-03-26T07:13:07.043Z,95211.4
2019-03-26T07:18:05.137Z,95127
2019-03-26T07:23:02.883Z,95136.2
2019-03-26T07:28:01.252Z,95230.2
2019-03-26T07:32:58.681Z,95155.8
2019-03-26T07:37:56.442Z,95127
2019-03-26T07:42:54.210Z,95154.6
2019-03-26T07:47:52.463Z,95048.6
2019-03-26T07:52:50.051Z,95154.4
2019-03-26T07:57:47.832Z,95165.8
2019-03-26T08:02:46.027Z,95161
2019-03-26T08:07:57.449Z,95174.4
2019-03-26T08:12:42.222Z,95167.8
2019-03-26T08:17:39.975Z,95166.9
2019-03-26T08:22:37.954Z,95161.9
2019-03-26T08:27:35.840Z,95161
2019-03-26T08:32:36.906Z,95170.2
2019-03-26T08:37:31.786Z,95173.4
2019-03-26T08:42:29.949Z,95263.2
2019-03-26T08:47:27.590Z,95179.1
2019-03-26T08:52:25.921Z,95158.3
2019-03-26T08:57:23.996Z,95180.9
2019-03-26T09:02:21.841Z,95184.5
2019-03-26T09:07:19.458Z,95193.3
2019-03-26T09:12:17.450Z,95204.1
2019-03-26T09:17:14.747Z,95187
2019-03-26T09:22:12.483Z,95185.2
2019-03-26T09:27:10.789Z,95169.4
2019-03-26T09:32:08.975Z,95182.7
2019-03-26T09:37:06.225Z,95264.1
2019-03-26T09:42:04.053Z,95198.9
2019-03-26T09:47:01.161Z,95191.9
2019-03-26T09:51:59.249Z,95192.5
2019-03-26T09:56:57.577Z,95205.1
2019-03-26T10:01:55.771Z,95284.1
2019-03-26T10:06:53.331Z,95206.5
2019-03-26T10:11:51.520Z,95294.2
2019-03-26T10:16:49.176Z,95218.6
2019-03-26T10:21:47.400Z,94448.4
2019-03-26T10:26:44.877Z,95281.5
2019-03-26T10:31:43.075Z,95216
2019-03-26T10:36:41.651Z,95213.6
2019-03-26T10:41:38.106Z,95352.9
2019-03-26T10:46:35.744Z,95209.2
2019-03-26T10:51:33.586Z,95217.9
2019-03-26T10:56:32.692Z,95217.7
2019-03-26T11:01:29.714Z,95203.4
2019-03-26T11:06:27.629Z,95201
2019-03-26T11:11:25.537Z,95204.1
2019-03-26T11:16:23.749Z,95216.3
2019-03-26T11:21:21.663Z,95202.2
2019-03-26T11:26:19.846Z,95202.1
2019-03-26T11:31:17.583Z,95253
2019-03-26T11:36:14.965Z,95202.8
2019-03-26T11:41:12.469Z,95289.3
2019-03-26T11:46:09.811Z,95280.8
2019-03-26T11:51:08.021Z,95254.8
2019-03-26T11:56:05.748Z,95199.8
2019-03-26T12:01:03.365Z,94387.3
2019-03-26T12:06:01.160Z,95206.2
2019-03-26T12:10:58.930Z,95208.2
2019-03-26T12:15:56.569Z,95212.3
2019-03-26T12:20:54.283Z,95211.3
2019-03-26T12:25:52.222Z,95222
2019-03-26T12:30:50.022Z,95298.3
2019-03-26T12:35:47.816Z,95226.8
2019-03-26T12:40:45.738Z,95302.5
2019-03-26T12:45:43.582Z,95312.5
2019-03-26T12:50:41.053Z,95235.3
2019-03-26T12:55:38.844Z,95319.5
2019-03-26T13:00:36.918Z,95314.3
2019-03-26T13:05:34.503Z,95238.2
2019-03-26T13:10:32.737Z,95236.1
2019-03-26T13:15:30.287Z,95231.1
2019-03-26T13:20:27.990Z,95240.2
2019-03-26T13:25:25.774Z,95240.3
2019-03-26T13:30:23.482Z,95231.7
2019-03-26T13:35:21.312Z,95242.9
2019-03-26T13:40:26.885Z,95255.9
2019-03-26T13:45:16.976Z,95252
2019-03-26T13:50:14.950Z,95261.3
2019-03-26T13:55:12.817Z,95274.1
2019-03-26T14:00:10.393Z,95340.7
2019-03-26T14:05:08.100Z,95335.9
2019-03-26T14:10:05.709Z,95349.2
2019-03-26T14:15:04.539Z,95406.4
2019-03-26T14:20:01.928Z,95269.6
2019-03-26T14:24:59.563Z,95308.3
2019-03-26T14:29:57.574Z,95344.7
2019-03-26T14:34:55.336Z,95340.5
2019-03-26T14:39:54.417Z,95334.5
2019-03-26T14:44:50.901Z,95340.9
2019-03-26T14:49:49.040Z,95339.4
2019-03-26T14:54:46.738Z,95270.8
2019-03-26T14:59:44.236Z,94474.3
2019-03-26T15:04:41.947Z,95352.5
2019-03-26T15:09:39.685Z,95364.2
2019-03-26T15:14:37.375Z,95364.2
2019-03-26T15:19:35.347Z,95371.5
2019-03-26T15:24:32.865Z,95377.4
2019-03-26T15:29:30.724Z,95382.5
2019-03-26T15:34:35.769Z,95379.4
2019-03-26T15:39:27.517Z,95394.1
2019-03-26T15:44:24.918Z,95393.6
2019-03-26T15:49:23.117Z,95399.8
2019-03-26T15:54:20.555Z,95398.4
2019-03-26T15:59:18.279Z,95399.8
2019-03-26T16:04:16.308Z,95401.5
2019-03-26T16:09:14.666Z,95466
2019-03-26T16:14:12.694Z,95401.3
2019-03-26T16:19:10.126Z,95343.4
2019-03-26T16:24:08.288Z,95408.2
2019-03-26T16:29:06.052Z,95327.3
2019-03-26T16:34:03.580Z,95417.9
2019-03-26T16:39:01.377Z,95341.8
2019-03-26T16:43:59.824Z,95487.7
2019-03-26T16:48:58.090Z,95501.3
2019-03-26T16:53:55.811Z,95362.9
2019-03-26T16:58:53.623Z,95444.9
2019-03-26T17:03:51.733Z,95455.3
2019-03-26T17:08:49.980Z,95397.5
2019-03-26T17:13:46.259Z,95414.3
2019-03-26T17:18:44.527Z,95482
2019-03-26T17:23:42.068Z,95370.5
2019-03-26T17:28:40.002Z,95457.5
2019-03-26T17:33:38.057Z,95409.9
2019-03-26T17:38:37.308Z,95499
2019-03-26T17:43:35.044Z,95423.5
2019-03-26T17:48:37.652Z,95395.6
2019-03-26T17:53:34.461Z,95424.4
2019-03-26T17:58:33.021Z,95586.2
2019-03-26T18:03:30.172Z,95445.1
2019-03-26T18:08:28.729Z,95594.3
2019-03-26T18:13:26.640Z,95465.3
2019-03-26T18:18:25.427Z,95551.3
2019-03-26T18:23:24.589Z,95484.3
2019-03-26T18:28:21.948Z,94620.4
2019-03-26T18:33:20.219Z,95572.8
2019-03-26T18:38:17.874Z,95417.3
2019-03-26T18:43:16.446Z,95511
2019-03-26T18:48:18.298Z,95506
2019-03-26T18:53:15.372Z,95505.3
2019-03-26T18:58:13.201Z,95507.1
2019-03-26T19:03:11.025Z,95514.8
2019-03-26T19:13:18.325Z,95516.4
2019-03-26T19:18:05.412Z,95601.2
2019-03-26T19:23:03.691Z,95522.2
2019-03-26T19:28:02.077Z,95606.3
2019-03-26T19:32:59.832Z,95477.6
2019-03-26T19:37:57.628Z,95538
2019-03-26T19:42:55.785Z,95629.2
2019-03-26T19:47:53.687Z,95291.4
2019-03-26T19:52:51.425Z,95554.3
2019-03-26T19:57:49.781Z,95552
2019-03-26T20:02:47.568Z,95551.5
2019-03-26T20:07:46.203Z,95554.4
2019-03-26T20:12:44.461Z,95566.8
2019-03-26T20:17:42.502Z,95489.4
2019-03-26T20:22:40.897Z,95291.3
2019-03-26T20:27:38.632Z,95585.7
2019-03-26T20:32:37.194Z,95578.8
2019-03-26T20:37:35.066Z,95673.3
2019-03-26T20:42:33.286Z,95595.5
2019-03-26T20:47:31.378Z,95587.3
2019-03-26T20:52:29.312Z,95587.3
2019-03-26T20:57:27.171Z,95596.4
2019-03-26T21:02:24.925Z,95605.2
2019-03-26T21:07:23.327Z,95692.5
2019-03-26T21:12:21.400Z,95611.9
2019-03-26T21:17:19.403Z,95625.7
2019-03-26T21:22:17.684Z,95624.1
2019-03-26T21:27:15.587Z,95559.4
2019-03-26T21:32:13.719Z,95637.1
2019-03-26T21:37:11.344Z,95646.6
2019-03-26T21:42:09.317Z,95654.3
2019-03-26T21:47:07.215Z,95663.9
2019-03-26T21:52:05.077Z,95668.7
2019-03-26T21:57:03.090Z,95663.9
2019-03-26T22:02:00.940Z,95682.9
2019-03-26T22:06:59.011Z,95675.7
2019-03-26T22:11:56.970Z,95686.4
2019-03-26T22:16:54.629Z,95690.5
2019-03-26T22:21:52.652Z,95690.2
2019-03-26T22:26:50.326Z,95667.6
2019-03-26T22:31:48.004Z,95694.8
2019-03-26T22:36:46.482Z,95690.6
2019-03-26T22:41:44.302Z,95690.9
2019-03-26T22:46:42.074Z,95706.4
2019-03-26T22:51:39.930Z,95707.6
2019-03-26T22:56:37.896Z,95705.3
2019-03-26T23:01:35.241Z,95704.7
2019-03-26T23:06:33.400Z,95706
2019-03-26T23:11:31.449Z,95713.3
2019-03-26T23:16:29.147Z,95708.6
2019-03-26T23:21:27.358Z,95706.6
2019-03-26T23:26:25.467Z,95700.8
2019-03-26T23:31:23.459Z,95795.5
2019-03-26T23:36:21.368Z,95706.9
2019-03-26T23:41:19.456Z,95716.9
2019-03-26T23:46:17.201Z,95796.9
2019-03-26T23:51:15.130Z,95793.5
2019-03-26T23:56:13.137Z,95794.6
